Time;durP1;ratioP1;P1;durP2;ratioP2;P2;SDS_P1;SDS_P2;PMS_P1;PMS_P2;Temp;Humidity;BMP_temperature;BMP_pressure;BME280_temperature;BME280_humidity;BME280_pressure;Samples;Min_cycle;Max_cycle;Signal;HPM_P1;HPM_P2
2022/12/04 00:01:56;;;;;;;;;;;5.20;77.80;;;;;;5042528;28;92090;-40
2022/12/04 00:04:21;;;;;;;;;;;5.20;77.80;;;;;;5041888;28;93315;-40
2022/12/04 00:06:47;;;;;;;;;;;5.20;77.70;;;;;;5045219;28;93190;-40
2022/12/04 00:09:12;;;;;;;;;;;5.20;77.70;;;;;;5041726;28;93186;-40
2022/12/04 00:11:38;;;;;;;;;;;5.20;77.80;;;;;;5042185;28;92124;-40
2022/12/04 00:14:03;;;;;;;;;;;5.20;77.60;;;;;;5042297;28;92445;-40
2022/12/04 00:16:29;;;;;;;;;;;5.20;77.70;;;;;;5041243;28;92303;-40
2022/12/04 00:18:55;;;;;;;;;;;5.20;77.70;;;;;;5041993;28;92170;-40
2022/12/04 00:21:21;;;;;;;;;;;5.20;77.70;;;;;;5042127;28;92428;-40
2022/12/04 00:23:46;;;;;;;;;;;5.20;77.80;;;;;;5041859;28;92237;-40
2022/12/04 00:26:14;;;;;;;;;;;5.20;77.80;;;;;;5041694;28;92121;-40
2022/12/04 00:28:40;;;;;;;;;;;5.20;77.70;;;;;;5044497;27;92604;-40
2022/12/04 00:31:07;;;;;;;;;;;5.20;77.80;;;;;;5041023;28;93080;-40
2022/12/04 00:33:33;;;;;;;;;;;5.20;77.70;;;;;;5041939;28;93307;-40
2022/12/04 00:35:59;;;;;;;;;;;5.20;77.70;;;;;;5041451;28;92261;-40
2022/12/04 00:38:25;;;;;;;;;;;5.20;77.80;;;;;;5041888;28;92132;-40
2022/12/04 00:40:51;;;;;;;;;;;5.20;77.80;;;;;;5041936;27;92385;-40
2022/12/04 00:43:16;;;;;;;;;;;5.20;77.80;;;;;;5041061;28;92913;-40
2022/12/04 00:45:42;;;;;;;;;;;5.20;77.80;;;;;;5041084;28;92021;-40
2022/12/04 00:48:08;;;;;;;;;;;5.20;77.60;;;;;;5044682;27;92339;-40
2022/12/04 00:50:34;;;;;;;;;;;5.20;77.60;;;;;;5041371;28;92145;-40
2022/12/04 00:52:59;;;;;;;;;;;5.10;77.60;;;;;;5041561;27;92352;-40
2022/12/04 00:55:25;;;;;;;;;;;5.20;77.70;;;;;;5040436;28;94072;-40
2022/12/04 00:57:50;;;;;;;;;;;5.20;77.70;;;;;;5041539;28;92091;-40
2022/12/04 01:00:17;;;;;;;;;;;5.20;77.60;;;;;;5041389;28;92382;-40
2022/12/04 01:02:43;;;;;;;;;;;5.10;77.60;;;;;;5040640;28;94433;-40
2022/12/04 01:05:08;;;;;;;;;;;5.20;77.70;;;;;;5041486;28;92150;-40
2022/12/04 01:07:34;;;;;;;;;;;5.20;77.70;;;;;;5041569;28;92188;-40
2022/12/04 01:09:59;;;;;;;;;;;5.10;77.70;;;;;;5043970;28;92626;-40
2022/12/04 01:12:25;;;;;;;;;;;5.10;77.70;;;;;;5041752;28;92442;-40
2022/12/04 01:14:50;;;;;;;;;;;5.10;77.60;;;;;;5040767;28;93048;-40
2022/12/04 01:17:16;;;;;;;;;;;5.10;77.70;;;;;;5040980;28;92133;-40
2022/12/04 01:19:41;;;;;;;;;;;5.10;77.70;;;;;;5040639;27;92936;-40
2022/12/04 01:22:07;;;;;;;;;;;5.10;77.70;;;;;;5040632;28;93061;-40
2022/12/04 01:24:32;;;;;;;;;;;5.10;77.80;;;;;;5041167;28;92180;-40
2022/12/04 01:26:58;;;;;;;;;;;5.10;77.70;;;;;;5041408;28;92460;-40
2022/12/04 01:29:23;;;;;;;;;;;5.10;77.60;;;;;;5040638;28;92886;-40
2022/12/04 01:31:49;;;;;;;;;;;5.10;77.70;;;;;;5044129;28;92189;-40
2022/12/04 01:34:14;;;;;;;;;;;5.10;77.70;;;;;;5040531;28;93187;-40
2022/12/04 01:36:40;;;;;;;;;;;5.10;77.70;;;;;;5041357;28;91393;-40
2022/12/04 01:39:05;;;;;;;;;;;5.10;77.80;;;;;;5040938;28;92058;-40
2022/12/04 01:41:31;;;;;;;;;;;5.10;77.80;;;;;;5040317;28;92270;-40
2022/12/04 01:44:08;;;;;;;;;;;5.10;77.70;;;;;;5040126;28;93085;-40
2022/12/04 01:46:34;;;;;;;;;;;5.10;77.70;;;;;;5040382;28;92074;-40
2022/12/04 01:49:00;;;;;;;;;;;5.10;77.70;;;;;;5040323;28;93119;-40
2022/12/04 01:51:32;;;;;;;;;;;5.10;77.70;;;;;;5040879;28;92142;-40
2022/12/04 01:53:59;;;;;;;;;;;5.10;77.70;;;;;;5043383;27;92356;-40
2022/12/04 01:56:28;;;;;;;;;;;5.10;77.80;;;;;;5040573;28;92059;-40
2022/12/04 01:58:55;;;;;;;;;;;5.10;77.70;;;;;;5040228;28;92459;-40
2022/12/04 02:01:21;;;;;;;;;;;5.10;77.70;;;;;;5040458;28;92311;-40
2022/12/04 02:03:47;;;;;;;;;;;5.10;77.70;;;;;;5040479;28;92146;-40
2022/12/04 02:06:12;;;;;;;;;;;5.10;77.70;;;;;;5039991;27;92330;-40
2022/12/04 02:08:38;;;;;;;;;;;5.10;77.70;;;;;;5039161;28;94007;-40
2022/12/04 02:11:03;;;;;;;;;;;5.00;77.70;;;;;;5040542;28;92113;-40
2022/12/04 02:13:47;;;;;;;;;;;5.10;77.70;;;;;;5040259;28;92397;-40
2022/12/04 02:16:16;;;;;;;;;;;5.00;77.80;;;;;;5042693;28;93085;-40
2022/12/04 02:18:44;;;;;;;;;;;5.00;77.80;;;;;;5040087;28;93969;-40
2022/12/04 02:21:22;;;;;;;;;;;5.00;77.70;;;;;;5039820;28;92280;-40
2022/12/04 02:24:02;;;;;;;;;;;5.00;77.60;;;;;;5039920;28;92106;-40
2022/12/04 02:26:31;;;;;;;;;;;5.00;77.70;;;;;;5040624;28;92227;-40
2022/12/04 02:29:01;;;;;;;;;;;5.00;77.70;;;;;;5039512;28;93013;-40
2022/12/04 02:31:34;;;;;;;;;;;5.00;77.70;;;;;;5039661;28;92151;-40
2022/12/04 02:34:03;;;;;;;;;;;5.00;77.70;;;;;;5039354;28;92932;-40
2022/12/04 02:36:30;;;;;;;;;;;5.00;77.80;;;;;;5039284;28;93296;-40
2022/12/04 02:39:03;;;;;;;;;;;5.00;77.70;;;;;;5043015;28;92276;-40
2022/12/04 02:41:28;;;;;;;;;;;5.00;77.70;;;;;;5039144;28;93378;-40
2022/12/04 02:43:56;;;;;;;;;;;5.00;77.70;;;;;;5039951;28;92368;-40
2022/12/04 02:46:24;;;;;;;;;;;5.00;77.70;;;;;;5039294;27;92347;-40
2022/12/04 02:48:51;;;;;;;;;;;5.00;77.70;;;;;;5039275;28;93137;-40
2022/12/04 02:51:19;;;;;;;;;;;5.00;77.80;;;;;;5040148;28;91166;-40
2022/12/04 02:53:48;;;;;;;;;;;5.00;77.80;;;;;;5039806;27;91987;-40
2022/12/04 02:56:17;;;;;;;;;;;5.00;77.80;;;;;;5038961;28;93071;-40
2022/12/04 02:58:48;;;;;;;;;;;5.00;77.70;;;;;;5042063;28;93418;-40
2022/12/04 03:01:18;;;;;;;;;;;5.00;77.70;;;;;;5038992;28;93162;-40
2022/12/04 03:03:48;;;;;;;;;;;5.00;77.60;;;;;;5039156;28;92056;-40
2022/12/04 03:06:14;;;;;;;;;;;5.00;77.70;;;;;;5039319;28;92493;-40
2022/12/04 03:08:42;;;;;;;;;;;5.00;77.70;;;;;;5039129;28;93018;-40
2022/12/04 03:11:08;;;;;;;;;;;5.00;77.60;;;;;;5039580;28;92162;-40
2022/12/04 03:13:42;;;;;;;;;;;4.90;77.70;;;;;;5039644;27;92318;-40
2022/12/04 03:16:30;;;;;;;;;;;5.00;77.70;;;;;;5038737;28;92463;-40
2022/12/04 03:18:56;;;;;;;;;;;4.90;77.70;;;;;;5039237;28;92004;-40
2022/12/04 03:21:23;;;;;;;;;;;5.00;77.60;;;;;;5041790;27;93943;-40
2022/12/04 03:23:52;;;;;;;;;;;5.00;77.60;;;;;;5038576;28;93106;-40
2022/12/04 03:26:21;;;;;;;;;;;4.90;77.70;;;;;;5039209;27;93476;-40
2022/12/04 03:28:56;;;;;;;;;;;4.90;77.60;;;;;;5038480;28;92819;-40
2022/12/04 03:31:42;;;;;;;;;;;4.90;77.50;;;;;;5039266;28;92271;-40
2022/12/04 03:34:09;;;;;;;;;;;4.90;78.10;;;;;;5039423;28;92107;-40
2022/12/04 03:36:43;;;;;;;;;;;4.90;77.60;;;;;;5038764;28;93084;-40
2022/12/04 03:39:17;;;;;;;;;;;4.90;77.50;;;;;;5039229;28;92046;-40
2022/12/04 03:41:58;;;;;;;;;;;5.00;77.70;;;;;;5039611;27;92148;-40
2022/12/04 03:44:42;;;;;;;;;;;4.90;77.70;;;;;;5041497;28;92856;-40
2022/12/04 03:47:30;;;;;;;;;;;4.90;77.70;;;;;;5039259;28;92488;-40
2022/12/04 03:49:58;;;;;;;;;;;4.90;77.70;;;;;;5031752;28;94073;-40
2022/12/04 03:52:30;;;;;;;;;;;4.90;77.60;;;;;;5038784;28;92170;-40
2022/12/04 03:55:02;;;;;;;;;;;4.90;77.70;;;;;;5038885;27;92529;-40
2022/12/04 03:57:30;;;;;;;;;;;4.90;77.60;;;;;;5038198;28;93139;-40
2022/12/04 03:59:59;;;;;;;;;;;4.90;77.70;;;;;;5038625;28;92163;-40
2022/12/04 04:02:27;;;;;;;;;;;4.90;77.70;;;;;;5038733;28;92754;-40
2022/12/04 04:04:54;;;;;;;;;;;4.90;77.70;;;;;;5038204;28;92959;-40
2022/12/04 04:07:23;;;;;;;;;;;4.90;77.60;;;;;;5042077;28;91409;-40
2022/12/04 04:09:52;;;;;;;;;;;4.80;77.60;;;;;;5038215;28;92581;-40
2022/12/04 04:12:24;;;;;;;;;;;4.80;77.60;;;;;;5038768;28;92155;-40
2022/12/04 04:26:01;;;;;;;;;;;4.90;77.40;;;;;;5038257;28;92300;-40
2022/12/04 04:28:32;;;;;;;;;;;4.80;77.60;;;;;;5039623;28;92095;-40
2022/12/04 04:31:16;;;;;;;;;;;4.80;77.80;;;;;;5044450;28;92473;-40
2022/12/04 04:34:02;;;;;;;;;;;4.80;77.50;;;;;;5042202;27;91142;-40
2022/12/04 04:36:42;;;;;;;;;;;4.90;77.50;;;;;;5033654;28;95252;-40
2022/12/04 04:39:18;;;;;;;;;;;4.80;77.60;;;;;;5041582;28;92922;-40
2022/12/04 04:42:04;;;;;;;;;;;4.80;77.60;;;;;;5040937;28;92998;-40
2022/12/04 04:44:48;;;;;;;;;;;4.80;77.40;;;;;;5040573;28;93141;-40
2022/12/04 04:47:19;;;;;;;;;;;4.80;77.40;;;;;;5041342;28;93216;-40
2022/12/04 04:49:47;;;;;;;;;;;4.80;77.50;;;;;;5041869;28;92453;-40
2022/12/04 04:52:13;;;;;;;;;;;4.80;77.60;;;;;;5041384;27;93872;-40
2022/12/04 04:54:39;;;;;;;;;;;4.80;77.50;;;;;;5044128;28;93234;-40
2022/12/04 04:57:05;;;;;;;;;;;4.70;77.60;;;;;;5041828;27;92324;-40
2022/12/04 04:59:30;;;;;;;;;;;4.80;77.60;;;;;;5041947;28;92147;-40
2022/12/04 05:01:56;;;;;;;;;;;4.80;77.60;;;;;;5041477;28;92193;-40
2022/12/04 05:04:22;;;;;;;;;;;4.80;77.50;;;;;;5041430;28;92527;-40
2022/12/04 05:06:47;;;;;;;;;;;4.80;77.50;;;;;;5040370;28;93352;-40
2022/12/04 05:09:13;;;;;;;;;;;4.70;77.50;;;;;;5041320;28;91933;-40
2022/12/04 05:11:38;;;;;;;;;;;4.80;77.50;;;;;;5041404;28;92380;-40
2022/12/04 05:14:05;;;;;;;;;;;4.80;77.40;;;;;;5043916;28;93169;-40
2022/12/04 05:16:31;;;;;;;;;;;4.80;77.60;;;;;;5041004;27;94189;-40
2022/12/04 05:21:41;;;;;;;;;;;4.70;77.40;;;;;;5041065;28;92057;-40
2022/12/04 05:24:07;;;;;;;;;;;4.70;77.40;;;;;;5041627;28;92483;-40
2022/12/04 05:26:33;;;;;;;;;;;4.70;77.40;;;;;;5040416;28;93095;-40
2022/12/04 05:28:58;;;;;;;;;;;4.70;77.40;;;;;;5040998;28;92148;-40
2022/12/04 05:31:24;;;;;;;;;;;4.70;77.50;;;;;;5040539;28;93041;-40
2022/12/04 05:33:49;;;;;;;;;;;4.70;77.50;;;;;;5040529;28;93157;-40
2022/12/04 05:36:15;;;;;;;;;;;4.70;77.50;;;;;;5043988;28;92091;-40
2022/12/04 05:38:40;;;;;;;;;;;4.70;77.50;;;;;;5040475;28;93147;-40
2022/12/04 05:41:06;;;;;;;;;;;4.70;77.50;;;;;;5039854;27;92160;-40
2022/12/04 05:43:32;;;;;;;;;;;4.70;77.40;;;;;;5040605;27;92294;-40
2022/12/04 05:46:05;;;;;;;;;;;4.70;77.50;;;;;;5039938;28;92667;-40
2022/12/04 05:48:31;;;;;;;;;;;4.70;77.50;;;;;;5041299;28;91342;-40
2022/12/04 05:50:56;;;;;;;;;;;4.70;77.40;;;;;;5040810;27;92029;-40
2022/12/04 05:53:22;;;;;;;;;;;4.70;77.40;;;;;;5040124;28;93198;-40
2022/12/04 05:55:57;;;;;;;;;;;4.70;77.50;;;;;;5039963;28;93063;-40
2022/12/04 05:58:23;;;;;;;;;;;4.70;77.40;;;;;;5042979;27;93353;-40
2022/12/04 06:00:48;;;;;;;;;;;4.70;77.50;;;;;;5040475;28;92197;-40
2022/12/04 06:03:14;;;;;;;;;;;4.70;77.50;;;;;;5040602;28;92217;-40
2022/12/04 06:05:39;;;;;;;;;;;4.60;77.50;;;;;;5039618;28;93237;-40
2022/12/04 06:08:04;;;;;;;;;;;4.70;77.40;;;;;;5040771;28;92441;-40
2022/12/04 06:10:30;;;;;;;;;;;4.70;77.40;;;;;;5040514;28;92390;-40
2022/12/04 06:12:56;;;;;;;;;;;4.70;77.30;;;;;;5040401;28;91584;-40
2022/12/04 06:15:22;;;;;;;;;;;4.70;77.20;;;;;;5040337;28;92127;-40
2022/12/04 06:17:48;;;;;;;;;;;4.60;77.30;;;;;;5040371;27;92393;-40
2022/12/04 06:20:13;;;;;;;;;;;4.70;77.30;;;;;;5042132;28;93978;-40
2022/12/04 06:22:39;;;;;;;;;;;4.60;77.40;;;;;;5040134;27;93298;-40
2022/12/04 06:25:05;;;;;;;;;;;4.70;77.40;;;;;;5039363;28;94305;-40
2022/12/04 06:27:31;;;;;;;;;;;4.60;77.30;;;;;;5040235;28;92455;-40
2022/12/04 06:29:56;;;;;;;;;;;4.60;77.20;;;;;;5040187;27;92076;-40
2022/12/04 06:32:22;;;;;;;;;;;4.60;77.40;;;;;;5039552;28;93233;-40
2022/12/04 06:34:54;;;;;;;;;;;4.60;77.30;;;;;;5039739;28;92154;-40
2022/12/04 06:37:20;;;;;;;;;;;4.60;77.40;;;;;;5040423;27;92422;-40
2022/12/04 06:39:46;;;;;;;;;;;4.60;77.50;;;;;;5039347;28;94514;-40
2022/12/04 06:42:11;;;;;;;;;;;4.60;77.40;;;;;;5042880;28;92198;-40
2022/12/04 06:44:37;;;;;;;;;;;4.60;77.20;;;;;;5038424;28;94241;-40
2022/12/04 06:47:02;;;;;;;;;;;4.60;77.20;;;;;;5040098;28;92079;-40
2022/12/04 06:49:28;;;;;;;;;;;4.60;77.20;;;;;;5039768;28;92338;-40
2022/12/04 06:51:53;;;;;;;;;;;4.70;77.10;;;;;;5039189;27;93072;-40
2022/12/04 06:54:19;;;;;;;;;;;4.60;77.20;;;;;;5040037;28;92147;-40
2022/12/04 06:56:44;;;;;;;;;;;4.70;77.10;;;;;;5039735;28;92396;-40
2022/12/04 06:59:10;;;;;;;;;;;4.70;77.10;;;;;;5039306;28;92881;-40
2022/12/04 07:01:35;;;;;;;;;;;4.70;77.10;;;;;;5040130;28;91323;-40
2022/12/04 07:04:02;;;;;;;;;;;4.70;77.10;;;;;;5042268;28;92411;-40
2022/12/04 07:06:38;;;;;;;;;;;4.60;77.00;;;;;;5039296;28;93144;-40
2022/12/04 07:09:08;;;;;;;;;;;4.70;77.10;;;;;;5038807;28;93082;-40
2022/12/04 07:11:35;;;;;;;;;;;4.60;77.60;;;;;;5038868;28;93021;-40
2022/12/04 07:14:00;;;;;;;;;;;4.60;77.00;;;;;;5039677;28;92164;-40
2022/12/04 07:16:26;;;;;;;;;;;4.70;77.10;;;;;;5039464;28;92338;-40
2022/12/04 07:18:52;;;;;;;;;;;4.60;77.20;;;;;;5038843;27;92241;-40
2022/12/04 07:21:19;;;;;;;;;;;4.70;77.10;;;;;;5039378;28;92018;-40
2022/12/04 07:23:47;;;;;;;;;;;4.60;77.00;;;;;;5041930;27;92281;-40
2022/12/04 07:26:13;;;;;;;;;;;4.60;77.00;;;;;;5039605;28;91412;-40
2022/12/04 07:28:38;;;;;;;;;;;4.60;77.20;;;;;;5039391;28;92168;-40
2022/12/04 07:31:04;;;;;;;;;;;4.60;77.40;;;;;;5038522;28;94326;-40
2022/12/04 07:33:30;;;;;;;;;;;4.60;77.20;;;;;;5038566;28;94109;-40
2022/12/04 07:35:56;;;;;;;;;;;4.60;77.00;;;;;;5039270;28;92646;-40
2022/12/04 07:38:22;;;;;;;;;;;4.60;77.20;;;;;;5038579;28;92694;-40
2022/12/04 07:40:47;;;;;;;;;;;4.60;77.10;;;;;;5039135;28;92049;-40
2022/12/04 07:43:13;;;;;;;;;;;4.60;77.30;;;;;;5038868;28;92313;-40
2022/12/04 07:45:38;;;;;;;;;;;4.60;77.30;;;;;;5041359;28;93242;-40
2022/12/04 07:48:04;;;;;;;;;;;4.60;77.20;;;;;;5038754;28;92457;-40
2022/12/04 07:50:29;;;;;;;;;;;4.60;77.30;;;;;;5039112;28;92355;-40
2022/12/04 07:52:55;;;;;;;;;;;4.60;77.40;;;;;;5039222;28;92145;-40
2022/12/04 07:55:20;;;;;;;;;;;4.60;77.40;;;;;;5038997;28;92363;-40
2022/12/04 07:57:46;;;;;;;;;;;4.60;77.30;;;;;;5037816;28;93994;-40
2022/12/04 08:00:12;;;;;;;;;;;4.60;77.40;;;;;;5038793;28;92070;-40
2022/12/04 08:02:39;;;;;;;;;;;4.60;77.50;;;;;;5039071;27;91993;-39
2022/12/04 08:05:04;;;;;;;;;;;4.60;77.30;;;;;;5041573;28;92942;-39
2022/12/04 08:07:30;;;;;;;;;;;4.60;77.40;;;;;;5045198;28;92122;-39
2022/12/04 08:09:56;;;;;;;;;;;4.60;77.40;;;;;;5042012;28;93139;-40
2022/12/04 08:12:21;;;;;;;;;;;4.60;77.40;;;;;;5042277;28;92152;-40
2022/12/04 08:14:47;;;;;;;;;;;4.60;77.50;;;;;;5042753;28;92063;-40
2022/12/04 08:17:13;;;;;;;;;;;4.60;77.30;;;;;;5041137;28;93081;-40
2022/12/04 08:19:38;;;;;;;;;;;4.60;77.50;;;;;;5042173;28;91922;-40
2022/12/04 08:22:04;;;;;;;;;;;4.50;77.70;;;;;;5041569;28;93025;-40
2022/12/04 08:24:29;;;;;;;;;;;4.50;77.80;;;;;;5041504;28;93437;-40
2022/12/04 08:26:55;;;;;;;;;;;4.50;77.60;;;;;;5042128;28;92176;-40
2022/12/04 08:29:20;;;;;;;;;;;4.50;77.60;;;;;;5044626;28;92839;-40
2022/12/04 08:31:46;;;;;;;;;;;4.50;77.60;;;;;;5042238;28;92226;-40
2022/12/04 08:34:12;;;;;;;;;;;4.50;77.90;;;;;;5041993;28;92081;-40
2022/12/04 08:36:37;;;;;;;;;;;4.50;78.00;;;;;;5041016;28;94839;-40
2022/12/04 08:39:03;;;;;;;;;;;4.40;78.00;;;;;;5042411;28;91461;-40
2022/12/04 08:41:29;;;;;;;;;;;4.50;78.10;;;;;;5041829;27;93001;-40
2022/12/04 08:43:55;;;;;;;;;;;4.50;78.10;;;;;;5041437;28;94334;-40
2022/12/04 08:46:21;;;;;;;;;;;4.40;78.10;;;;;;5040568;28;93064;-40
2022/12/04 08:48:46;;;;;;;;;;;4.50;78.40;;;;;;5041626;27;93310;-40
2022/12/04 08:51:14;;;;;;;;;;;4.50;78.10;;;;;;5044350;28;93228;-40
2022/12/04 08:53:39;;;;;;;;;;;4.50;78.10;;;;;;5041360;27;92871;-40
2022/12/04 08:56:05;;;;;;;;;;;4.50;78.30;;;;;;5041240;28;93272;-40
2022/12/04 08:58:31;;;;;;;;;;;4.50;78.10;;;;;;5041605;28;92012;-40
2022/12/04 09:01:02;;;;;;;;;;;4.50;78.00;;;;;;5041711;28;92410;-42
2022/12/04 09:03:27;;;;;;;;;;;4.50;78.60;;;;;;5041344;28;92584;-42
2022/12/04 09:05:57;;;;;;;;;;;4.40;81.60;;;;;;5041381;28;92133;-41
2022/12/04 09:08:22;;;;;;;;;;;4.40;83.50;;;;;;5041313;27;92436;-41
2022/12/04 09:10:48;;;;;;;;;;;4.40;84.10;;;;;;5040044;28;94094;-41
2022/12/04 09:13:13;;;;;;;;;;;4.40;83.40;;;;;;5044194;28;91974;-41
2022/12/04 09:15:39;;;;;;;;;;;4.40;83.10;;;;;;5039419;27;93205;-41
2022/12/04 09:18:05;;;;;;;;;;;4.50;82.80;;;;;;5040902;28;92129;-41
2022/12/04 09:20:31;;;;;;;;;;;4.70;82.00;;;;;;5041414;27;92465;-41
2022/12/04 09:22:57;;;;;;;;;;;4.70;81.00;;;;;;5040619;28;93074;-41
2022/12/04 09:25:22;;;;;;;;;;;4.80;79.90;;;;;;5041197;28;93082;-41
2022/12/04 09:27:48;;;;;;;;;;;4.80;79.80;;;;;;5041638;28;91993;-41
2022/12/04 09:30:13;;;;;;;;;;;4.80;80.50;;;;;;5040391;28;93108;-41
2022/12/04 09:32:39;;;;;;;;;;;4.80;80.00;;;;;;5044070;28;92179;-41
2022/12/04 09:35:05;;;;;;;;;;;4.80;80.40;;;;;;5039706;28;94000;-41
2022/12/04 09:37:35;;;;;;;;;;;4.80;79.90;;;;;;5040982;28;92109;-41
2022/12/04 09:40:01;;;;;;;;;;;4.80;79.50;;;;;;5040933;27;92696;-41
2022/12/04 09:42:27;;;;;;;;;;;4.90;79.90;;;;;;5040396;28;93139;-41
2022/12/04 09:44:59;;;;;;;;;;;4.80;79.20;;;;;;5040325;28;92147;-41
2022/12/04 09:47:34;;;;;;;;;;;4.80;79.50;;;;;;5041027;28;92487;-41
2022/12/04 09:50:03;;;;;;;;;;;4.90;79.40;;;;;;5040027;28;94424;-41
2022/12/04 09:52:35;;;;;;;;;;;4.80;79.40;;;;;;5041227;28;91456;-41
2022/12/04 09:55:02;;;;;;;;;;;4.80;78.90;;;;;;5043250;28;92484;-41
2022/12/04 09:57:36;;;;;;;;;;;4.80;79.00;;;;;;5040549;28;91973;-41
2022/12/04 10:00:03;;;;;;;;;;;4.80;79.80;;;;;;5039636;27;92943;-41
2022/12/04 10:02:39;;;;;;;;;;;4.80;79.60;;;;;;5039995;28;93037;-41
2022/12/04 10:05:06;;;;;;;;;;;4.70;79.20;;;;;;5040227;28;92175;-40
2022/12/04 10:07:31;;;;;;;;;;;4.70;79.50;;;;;;5040502;27;91945;-40
2022/12/04 10:10:03;;;;;;;;;;;4.70;79.50;;;;;;5039945;28;92714;-40
2022/12/04 10:12:33;;;;;;;;;;;4.70;79.80;;;;;;5040419;28;92545;-40
2022/12/04 10:15:18;;;;;;;;;;;4.70;79.80;;;;;;5040101;27;92600;-40
2022/12/04 10:17:53;;;;;;;;;;;4.70;79.70;;;;;;5042862;28;93337;-41
2022/12/04 10:20:18;;;;;;;;;;;4.60;79.70;;;;;;5040449;27;91858;-41
2022/12/04 10:22:44;;;;;;;;;;;4.70;79.70;;;;;;5039533;28;93004;-41
2022/12/04 10:25:36;;;;;;;;;;;4.70;79.80;;;;;;5039654;28;92992;-41
2022/12/04 10:28:10;;;;;;;;;;;4.60;79.80;;;;;;5037615;27;93456;-41
2022/12/04 10:30:36;;;;;;;;;;;4.60;80.10;;;;;;5039214;28;94505;-41
2022/12/04 10:33:10;;;;;;;;;;;4.50;80.20;;;;;;5040086;28;92534;-41
2022/12/04 10:35:36;;;;;;;;;;;4.50;80.50;;;;;;5040264;28;92462;-41
2022/12/04 10:38:31;;;;;;;;;;;4.50;80.70;;;;;;5039436;28;93212;-41
2022/12/04 10:41:00;;;;;;;;;;;4.50;80.80;;;;;;5033305;28;92138;-41
2022/12/04 10:43:37;;;;;;;;;;;4.50;81.10;;;;;;5039510;28;92196;-41
2022/12/04 10:46:03;;;;;;;;;;;4.50;81.20;;;;;;5039782;28;92139;-41
2022/12/04 10:48:33;;;;;;;;;;;4.50;81.30;;;;;;5039884;27;92485;-41
2022/12/04 10:50:59;;;;;;;;;;;4.40;81.30;;;;;;5038500;28;93938;-41
2022/12/04 10:53:33;;;;;;;;;;;4.40;81.40;;;;;;5039463;28;92085;-41
2022/12/04 10:56:12;;;;;;;;;;;4.40;81.30;;;;;;5039978;27;92388;-41
2022/12/04 10:58:37;;;;;;;;;;;4.50;81.20;;;;;;5038998;28;94250;-41
2022/12/04 11:01:05;;;;;;;;;;;4.60;81.00;;;;;;5039761;28;92160;-41
2022/12/04 11:03:31;;;;;;;;;;;4.50;81.10;;;;;;5042131;27;92341;-41
2022/12/04 11:06:04;;;;;;;;;;;4.50;81.50;;;;;;5039669;28;92502;-41
2022/12/04 11:08:40;;;;;;;;;;;4.50;81.70;;;;;;5039649;28;94236;-41
2022/12/04 11:11:07;;;;;;;;;;;4.50;81.80;;;;;;5039282;28;93064;-41
2022/12/04 11:13:33;;;;;;;;;;;4.50;82.00;;;;;;5039293;28;92122;-40
2022/12/04 11:15:59;;;;;;;;;;;4.50;82.20;;;;;;5038891;28;93523;-40
2022/12/04 11:18:24;;;;;;;;;;;4.50;82.30;;;;;;5039112;28;92291;-41
2022/12/04 11:20:50;;;;;;;;;;;4.50;82.30;;;;;;5039567;28;92207;-41
2022/12/04 11:23:16;;;;;;;;;;;4.50;82.20;;;;;;5041861;28;92410;-41
2022/12/04 11:25:46;;;;;;;;;;;4.50;82.30;;;;;;5039400;28;92235;-41
2022/12/04 11:28:16;;;;;;;;;;;4.50;82.30;;;;;;5039309;27;92671;-41
2022/12/04 11:30:45;;;;;;;;;;;4.50;82.30;;;;;;5038729;28;92259;-41
2022/12/04 11:33:19;;;;;;;;;;;4.50;82.40;;;;;;5039554;28;91356;-41
2022/12/04 11:35:49;;;;;;;;;;;4.50;82.30;;;;;;5039304;27;91987;-41
2022/12/04 11:38:16;;;;;;;;;;;4.50;83.00;;;;;;5039463;27;93168;-41
2022/12/04 11:40:49;;;;;;;;;;;4.50;82.40;;;;;;5042153;28;93085;-41
2022/12/04 11:43:16;;;;;;;;;;;4.50;82.50;;;;;;5042613;27;93502;-41
2022/12/04 11:45:52;;;;;;;;;;;4.50;82.50;;;;;;5044889;28;94598;-40
2022/12/04 11:48:18;;;;;;;;;;;4.60;82.40;;;;;;5042874;27;92015;-41
2022/12/04 11:50:50;;;;;;;;;;;4.60;82.40;;;;;;5042172;28;93137;-41
2022/12/04 11:53:21;;;;;;;;;;;4.50;82.60;;;;;;5042366;28;92405;-41
2022/12/04 11:56:02;;;;;;;;;;;4.50;82.50;;;;;;5042588;27;93661;-41
2022/12/04 11:58:35;;;;;;;;;;;4.60;82.50;;;;;;5042566;28;92002;-41
2022/12/04 12:01:06;;;;;;;;;;;4.60;82.60;;;;;;5042176;28;92016;-41
2022/12/04 12:03:39;;;;;;;;;;;4.60;82.50;;;;;;5042517;28;92444;-41
2022/12/04 12:06:11;;;;;;;;;;;4.60;82.80;;;;;;5041044;28;95324;-41
2022/12/04 12:08:39;;;;;;;;;;;4.60;82.90;;;;;;5045543;28;92134;-41
2022/12/04 12:11:20;;;;;;;;;;;4.60;82.90;;;;;;5041878;28;92140;-41
2022/12/04 12:13:57;;;;;;;;;;;4.60;82.70;;;;;;5042217;28;92125;-41
2022/12/04 12:16:23;;;;;;;;;;;4.60;82.70;;;;;;5042313;27;92383;-41
2022/12/04 12:19:13;;;;;;;;;;;4.70;82.70;;;;;;5041149;28;94407;-41
2022/12/04 12:22:05;;;;;;;;;;;4.70;82.60;;;;;;5042414;28;91936;-41
2022/12/04 12:24:38;;;;;;;;;;;4.70;82.70;;;;;;5040107;28;92398;-41
2022/12/04 12:27:22;;;;;;;;;;;4.70;82.50;;;;;;5041471;27;93002;-41
2022/12/04 12:30:06;;;;;;;;;;;4.70;82.60;;;;;;5042014;27;92460;-41
2022/12/04 12:32:52;;;;;;;;;;;4.70;82.60;;;;;;5044021;27;93002;-41
2022/12/04 12:35:20;;;;;;;;;;;4.80;82.40;;;;;;5041722;27;92169;-41
2022/12/04 12:37:51;;;;;;;;;;;4.80;82.60;;;;;;5041726;28;93799;-41
2022/12/04 12:40:22;;;;;;;;;;;4.80;82.50;;;;;;5041338;28;92994;-41
2022/12/04 12:42:54;;;;;;;;;;;4.70;82.60;;;;;;5041806;28;92389;-41
2022/12/04 12:45:19;;;;;;;;;;;4.80;82.50;;;;;;5041215;27;92689;-41
2022/12/04 12:47:46;;;;;;;;;;;4.80;82.60;;;;;;5041577;28;93043;-41
2022/12/04 12:50:38;;;;;;;;;;;4.90;82.30;;;;;;5042170;28;91840;-41
2022/12/04 12:53:09;;;;;;;;;;;4.80;82.30;;;;;;5039283;28;92173;-41
2022/12/04 12:55:38;;;;;;;;;;;4.80;82.30;;;;;;5044306;28;93148;-41
2022/12/04 12:58:06;;;;;;;;;;;4.90;82.50;;;;;;5040781;27;92974;-41
2022/12/04 13:00:35;;;;;;;;;;;4.90;82.40;;;;;;5040964;28;93159;-41
2022/12/04 13:03:04;;;;;;;;;;;4.90;82.50;;;;;;5041343;28;91963;-41
2022/12/04 13:05:33;;;;;;;;;;;4.80;82.60;;;;;;5041416;28;92848;-41
2022/12/04 13:08:09;;;;;;;;;;;4.80;82.60;;;;;;5040390;28;92952;-41
2022/12/04 13:10:47;;;;;;;;;;;4.90;82.40;;;;;;5041198;28;92599;-41
2022/12/04 13:13:18;;;;;;;;;;;4.90;82.60;;;;;;5041574;27;92379;-41
2022/12/04 13:15:48;;;;;;;;;;;5.00;82.50;;;;;;5041578;28;92531;-41
2022/12/04 13:18:26;;;;;;;;;;;4.90;82.20;;;;;;5044052;28;92596;-41
2022/12/04 13:20:54;;;;;;;;;;;5.00;81.90;;;;;;5040878;28;93116;-41
2022/12/04 13:23:28;;;;;;;;;;;5.00;82.00;;;;;;5040495;28;93054;-41
2022/12/04 13:25:57;;;;;;;;;;;5.00;82.00;;;;;;5041134;28;93391;-41
2022/12/04 13:28:41;;;;;;;;;;;5.00;81.90;;;;;;5040695;28;93137;-41
2022/12/04 13:31:25;;;;;;;;;;;5.10;81.70;;;;;;5040830;27;92229;-41
2022/12/04 13:33:56;;;;;;;;;;;5.10;81.90;;;;;;5041041;28;92816;-41
2022/12/04 13:36:31;;;;;;;;;;;5.10;81.90;;;;;;5040071;28;94314;-41
2022/12/04 13:39:15;;;;;;;;;;;5.10;81.80;;;;;;5044108;28;92301;-41
2022/12/04 13:41:41;;;;;;;;;;;5.10;82.00;;;;;;5040734;27;93689;-41
2022/12/04 13:44:18;;;;;;;;;;;5.20;81.90;;;;;;5040789;28;92288;-41
2022/12/04 13:46:58;;;;;;;;;;;5.20;81.80;;;;;;5040737;27;92153;-41
2022/12/04 13:49:25;;;;;;;;;;;5.20;81.60;;;;;;5039548;28;94137;-41
2022/12/04 13:51:52;;;;;;;;;;;5.20;81.70;;;;;;5040684;28;91882;-41
2022/12/04 13:54:25;;;;;;;;;;;5.10;81.70;;;;;;5040669;27;93631;-41
2022/12/04 13:56:54;;;;;;;;;;;5.20;81.90;;;;;;5040196;28;93083;-41
2022/12/04 13:59:25;;;;;;;;;;;5.20;81.80;;;;;;5040549;28;92395;-41
2022/12/04 14:01:52;;;;;;;;;;;5.20;82.00;;;;;;5042470;27;92000;-41
2022/12/04 14:04:30;;;;;;;;;;;5.30;81.70;;;;;;5039993;28;93236;-41
2022/12/04 14:06:57;;;;;;;;;;;5.30;81.80;;;;;;5040974;28;92470;-41
2022/12/04 14:09:32;;;;;;;;;;;5.20;81.70;;;;;;5039917;28;92847;-41
2022/12/04 14:12:02;;;;;;;;;;;5.20;81.60;;;;;;5040404;28;92223;-41
2022/12/04 14:14:40;;;;;;;;;;;5.30;81.80;;;;;;5039646;28;93823;-41
2022/12/04 14:17:15;;;;;;;;;;;5.40;81.40;;;;;;5039829;28;93135;-41
2022/12/04 14:19:43;;;;;;;;;;;5.40;80.90;;;;;;5040356;28;92083;-41
2022/12/04 14:22:27;;;;;;;;;;;5.40;81.20;;;;;;5040236;28;92555;-41
2022/12/04 14:25:03;;;;;;;;;;;5.50;81.10;;;;;;5042549;28;92967;-41
2022/12/04 14:27:41;;;;;;;;;;;5.50;81.10;;;;;;5040115;27;92410;-41
2022/12/04 14:30:18;;;;;;;;;;;5.50;80.90;;;;;;5039710;28;93212;-41
2022/12/04 14:32:46;;;;;;;;;;;5.50;81.00;;;;;;5040399;28;91436;-41
2022/12/04 14:35:13;;;;;;;;;;;5.60;80.70;;;;;;5040261;27;92333;-41
2022/12/04 14:37:43;;;;;;;;;;;5.60;80.80;;;;;;5039334;28;93190;-41
2022/12/04 14:40:20;;;;;;;;;;;5.60;80.80;;;;;;5039002;28;92930;-41
2022/12/04 14:42:47;;;;;;;;;;;5.60;80.50;;;;;;5039983;28;93406;-41
2022/12/04 14:45:24;;;;;;;;;;;5.60;80.50;;;;;;5038983;28;93055;-41
2022/12/04 14:47:57;;;;;;;;;;;5.60;80.40;;;;;;5043171;28;92072;-41
2022/12/04 14:50:28;;;;;;;;;;;5.60;80.30;;;;;;5039085;28;93148;-41
2022/12/04 14:52:58;;;;;;;;;;;5.60;80.30;;;;;;5039508;28;92116;-41
2022/12/04 14:55:42;;;;;;;;;;;5.60;80.00;;;;;;5039685;28;93852;-41
2022/12/04 14:58:29;;;;;;;;;;;5.60;80.00;;;;;;5039774;28;92515;-41